sensor_id;sensor_type;location;lat;lon;timestamp;P1;durP1;ratioP1;P2;durP2;ratioP2
17949;SDS011;9100;48.700;9.316;2022-08-23T00:00:47;3.7;;;3.1;;
17949;SDS011;9100;48.700;9.316;2022-08-23T00:01:47;3.7;;;3.1;;
17949;SDS011;9100;48.700;9.316;2022-08-23T00:01:58;6.5;;;3.8;;
17949;SDS011;9100;48.700;9.316;2022-08-23T00:02:47;6.5;;;3.8;;
17949;SDS011;9100;48.700;9.316;2022-08-23T00:03:47;6.5;;;3.8;;
17949;SDS011;9100;48.700;9.316;2022-08-23T00:04:47;6.5;;;3.8;;
17949;SDS011;9100;48.700;9.316;2022-08-23T00:05:47;6.5;;;3.8;;
17949;SDS011;9100;48.700;9.316;2022-08-23T00:06:47;6.5;;;3.8;;
17949;SDS011;9100;48.700;9.316;2022-08-23T00:06:57;3.6;;;3.3;;
17949;SDS011;9100;48.700;9.316;2022-08-23T00:07:47;3.6;;;3.3;;
17949;SDS011;9100;48.700;9.316;2022-08-23T00:08:47;3.6;;;3.3;;
17949;SDS011;9100;48.700;9.316;2022-08-23T00:09:47;3.6;;;3.3;;
17949;SDS011;9100;48.700;9.316;2022-08-23T00:10:47;3.6;;;3.3;;
17949;SDS011;9100;48.700;9.316;2022-08-23T00:11:47;3.6;;;3.3;;
17949;SDS011;9100;48.700;9.316;2022-08-23T00:12:02;4.1;;;3.7;;
17949;SDS011;9100;48.700;9.316;2022-08-23T00:12:47;4.1;;;3.7;;
17949;SDS011;9100;48.700;9.316;2022-08-23T00:13:47;4.1;;;3.7;;
17949;SDS011;9100;48.700;9.316;2022-08-23T00:14:48;4.1;;;3.7;;
17949;SDS011;9100;48.700;9.316;2022-08-23T00:15:47;4.1;;;3.7;;
17949;SDS011;9100;48.700;9.316;2022-08-23T00:16:47;4.1;;;3.7;;
17949;SDS011;9100;48.700;9.316;2022-08-23T00:16:57;3.5;;;3.3;;
17949;SDS011;9100;48.700;9.316;2022-08-23T00:17:47;3.5;;;3.3;;
17949;SDS011;9100;48.700;9.316;2022-08-23T00:18:47;3.5;;;3.3;;
17949;SDS011;9100;48.700;9.316;2022-08-23T00:19:47;3.5;;;3.3;;
17949;SDS011;9100;48.700;9.316;2022-08-23T00:20:47;3.5;;;3.3;;
17949;SDS011;9100;48.700;9.316;2022-08-23T00:21:47;3.5;;;3.3;;
17949;SDS011;9100;48.700;9.316;2022-08-23T00:21:57;3.9;;;3.6;;
17949;SDS011;9100;48.700;9.316;2022-08-23T00:22:47;3.9;;;3.6;;
17949;SDS011;9100;48.700;9.316;2022-08-23T00:23:47;3.9;;;3.6;;
17949;SDS011;9100;48.700;9.316;2022-08-23T00:24:47;3.9;;;3.6;;
17949;SDS011;9100;48.700;9.316;2022-08-23T00:25:47;3.9;;;3.6;;
17949;SDS011;9100;48.700;9.316;2022-08-23T00:26:48;3.9;;;3.6;;
17949;SDS011;9100;48.700;9.316;2022-08-23T00:26:58;4.6;;;4;;
17949;SDS011;9100;48.700;9.316;2022-08-23T00:27:47;4.6;;;4;;
17949;SDS011;9100;48.700;9.316;2022-08-23T00:28:47;4.6;;;4;;
17949;SDS011;9100;48.700;9.316;2022-08-23T00:29:48;4.6;;;4;;
17949;SDS011;9100;48.700;9.316;2022-08-23T00:30:47;4.6;;;4;;
17949;SDS011;9100;48.700;9.316;2022-08-23T00:31:47;4.6;;;4;;
17949;SDS011;9100;48.700;9.316;2022-08-23T00:31:57;6.6;;;4;;
17949;SDS011;9100;48.700;9.316;2022-08-23T00:32:47;6.6;;;4;;
17949;SDS011;9100;48.700;9.316;2022-08-23T00:33:47;6.6;;;4;;
17949;SDS011;9100;48.700;9.316;2022-08-23T00:34:47;6.6;;;4;;
17949;SDS011;9100;48.700;9.316;2022-08-23T00:35:47;6.6;;;4;;
17949;SDS011;9100;48.700;9.316;2022-08-23T00:36:47;6.6;;;4;;
17949;SDS011;9100;48.700;9.316;2022-08-23T00:36:57;8.3;;;3.5;;
17949;SDS011;9100;48.700;9.316;2022-08-23T00:37:47;8.3;;;3.5;;
17949;SDS011;9100;48.700;9.316;2022-08-23T00:38:47;8.3;;;3.5;;
17949;SDS011;9100;48.700;9.316;2022-08-23T00:39:47;8.3;;;3.5;;
17949;SDS011;9100;48.700;9.316;2022-08-23T00:40:48;8.3;;;3.5;;
17949;SDS011;9100;48.700;9.316;2022-08-23T00:41:48;8.3;;;3.5;;
17949;SDS011;9100;48.700;9.316;2022-08-23T00:41:58;6.5;;;4.2;;
17949;SDS011;9100;48.700;9.316;2022-08-23T00:42:49;6.5;;;4.2;;
17949;SDS011;9100;48.700;9.316;2022-08-23T00:43:47;6.5;;;4.2;;
17949;SDS011;9100;48.700;9.316;2022-08-23T00:44:47;6.5;;;4.2;;
17949;SDS011;9100;48.700;9.316;2022-08-23T00:45:47;6.5;;;4.2;;
17949;SDS011;9100;48.700;9.316;2022-08-23T00:46:49;6.5;;;4.2;;
17949;SDS011;9100;48.700;9.316;2022-08-23T00:46:57;4.8;;;4.4;;
17949;SDS011;9100;48.700;9.316;2022-08-23T00:47:47;4.8;;;4.4;;
17949;SDS011;9100;48.700;9.316;2022-08-23T00:48:47;4.8;;;4.4;;
17949;SDS011;9100;48.700;9.316;2022-08-23T00:49:49;4.8;;;4.4;;
17949;SDS011;9100;48.700;9.316;2022-08-23T00:50:48;4.8;;;4.4;;
17949;SDS011;9100;48.700;9.316;2022-08-23T00:51:48;4.8;;;4.4;;
17949;SDS011;9100;48.700;9.316;2022-08-23T00:51:58;3.8;;;3.5;;
17949;SDS011;9100;48.700;9.316;2022-08-23T00:52:49;3.8;;;3.5;;
17949;SDS011;9100;48.700;9.316;2022-08-23T00:53:47;3.8;;;3.5;;
17949;SDS011;9100;48.700;9.316;2022-08-23T00:54:47;3.8;;;3.5;;
17949;SDS011;9100;48.700;9.316;2022-08-23T00:55:47;3.8;;;3.5;;
17949;SDS011;9100;48.700;9.316;2022-08-23T00:56:47;3.8;;;3.5;;
17949;SDS011;9100;48.700;9.316;2022-08-23T00:56:57;4.3;;;3.9;;
17949;SDS011;9100;48.700;9.316;2022-08-23T00:57:47;4.3;;;3.9;;
17949;SDS011;9100;48.700;9.316;2022-08-23T00:58:47;4.3;;;3.9;;
17949;SDS011;9100;48.700;9.316;2022-08-23T00:59:47;4.3;;;3.9;;
17949;SDS011;9100;48.700;9.316;2022-08-23T01:00:47;4.3;;;3.9;;
17949;SDS011;9100;48.700;9.316;2022-08-23T01:01:47;4.3;;;3.9;;
17949;SDS011;9100;48.700;9.316;2022-08-23T01:01:57;10.5;;;4;;
17949;SDS011;9100;48.700;9.316;2022-08-23T01:02:47;10.5;;;4;;
17949;SDS011;9100;48.700;9.316;2022-08-23T01:03:48;10.5;;;4;;
17949;SDS011;9100;48.700;9.316;2022-08-23T01:04:48;10.5;;;4;;
17949;SDS011;9100;48.700;9.316;2022-08-23T01:05:49;10.5;;;4;;
17949;SDS011;9100;48.700;9.316;2022-08-23T01:06:47;10.5;;;4;;
17949;SDS011;9100;48.700;9.316;2022-08-23T01:06:57;7.8;;;4.5;;
17949;SDS011;9100;48.700;9.316;2022-08-23T01:07:48;7.8;;;4.5;;
17949;SDS011;9100;48.700;9.316;2022-08-23T01:08:47;7.8;;;4.5;;
17949;SDS011;9100;48.700;9.316;2022-08-23T01:09:47;7.8;;;4.5;;
17949;SDS011;9100;48.700;9.316;2022-08-23T01:10:47;7.8;;;4.5;;
17949;SDS011;9100;48.700;9.316;2022-08-23T01:11:48;7.8;;;4.5;;
17949;SDS011;9100;48.700;9.316;2022-08-23T01:11:58;4.5;;;4.1;;
17949;SDS011;9100;48.700;9.316;2022-08-23T01:12:48;4.5;;;4.1;;
17949;SDS011;9100;48.700;9.316;2022-08-23T01:13:47;4.5;;;4.1;;
17949;SDS011;9100;48.700;9.316;2022-08-23T01:14:48;4.5;;;4.1;;
17949;SDS011;9100;48.700;9.316;2022-08-23T01:15:47;4.5;;;4.1;;
17949;SDS011;9100;48.700;9.316;2022-08-23T01:16:48;4.5;;;4.1;;
17949;SDS011;9100;48.700;9.316;2022-08-23T01:16:58;3.6;;;3.4;;
17949;SDS011;9100;48.700;9.316;2022-08-23T01:17:48;3.6;;;3.4;;
17949;SDS011;9100;48.700;9.316;2022-08-23T01:18:47;3.6;;;3.4;;
17949;SDS011;9100;48.700;9.316;2022-08-23T01:19:47;3.6;;;3.4;;
17949;SDS011;9100;48.700;9.316;2022-08-23T01:20:47;3.6;;;3.4;;
17949;SDS011;9100;48.700;9.316;2022-08-23T01:21:48;3.6;;;3.4;;
17949;SDS011;9100;48.700;9.316;2022-08-23T01:21:58;4.3;;;3.9;;
17949;SDS011;9100;48.700;9.316;2022-08-23T01:22:55;4.3;;;3.9;;
17949;SDS011;9100;48.700;9.316;2022-08-23T01:23:48;4.3;;;3.9;;
17949;SDS011;9100;48.700;9.316;2022-08-23T01:24:47;4.3;;;3.9;;
17949;SDS011;9100;48.700;9.316;2022-08-23T01:25:47;4.3;;;3.9;;
17949;SDS011;9100;48.700;9.316;2022-08-23T01:26:47;4.3;;;3.9;;
17949;SDS011;9100;48.700;9.316;2022-08-23T01:26:57;3.9;;;3.3;;
17949;SDS011;9100;48.700;9.316;2022-08-23T01:27:47;3.9;;;3.3;;
17949;SDS011;9100;48.700;9.316;2022-08-23T01:28:47;3.9;;;3.3;;
17949;SDS011;9100;48.700;9.316;2022-08-23T01:29:47;3.9;;;3.3;;
17949;SDS011;9100;48.700;9.316;2022-08-23T01:30:47;3.9;;;3.3;;
17949;SDS011;9100;48.700;9.316;2022-08-23T01:31:47;3.9;;;3.3;;
17949;SDS011;9100;48.700;9.316;2022-08-23T01:31:57;7.8;;;4.3;;
17949;SDS011;9100;48.700;9.316;2022-08-23T01:32:48;7.8;;;4.3;;
17949;SDS011;9100;48.700;9.316;2022-08-23T01:33:48;7.8;;;4.3;;
17949;SDS011;9100;48.700;9.316;2022-08-23T01:34:47;7.8;;;4.3;;
17949;SDS011;9100;48.700;9.316;2022-08-23T01:35:47;7.8;;;4.3;;
17949;SDS011;9100;48.700;9.316;2022-08-23T01:36:47;7.8;;;4.3;;
17949;SDS011;9100;48.700;9.316;2022-08-23T01:36:57;4;;;3.7;;
17949;SDS011;9100;48.700;9.316;2022-08-23T01:37:47;4;;;3.7;;
17949;SDS011;9100;48.700;9.316;2022-08-23T01:38:47;4;;;3.7;;
17949;SDS011;9100;48.700;9.316;2022-08-23T01:39:47;4;;;3.7;;
17949;SDS011;9100;48.700;9.316;2022-08-23T01:40:47;4;;;3.7;;
17949;SDS011;9100;48.700;9.316;2022-08-23T01:41:47;4;;;3.7;;
17949;SDS011;9100;48.700;9.316;2022-08-23T01:41:57;4;;;3.7;;
17949;SDS011;9100;48.700;9.316;2022-08-23T01:42:47;4;;;3.7;;
17949;SDS011;9100;48.700;9.316;2022-08-23T01:43:47;4;;;3.7;;
17949;SDS011;9100;48.700;9.316;2022-08-23T01:44:47;4;;;3.7;;
17949;SDS011;9100;48.700;9.316;2022-08-23T01:45:48;4;;;3.7;;
17949;SDS011;9100;48.700;9.316;2022-08-23T01:46:47;4;;;3.7;;
17949;SDS011;9100;48.700;9.316;2022-08-23T01:46:57;5.3;;;3.9;;
17949;SDS011;9100;48.700;9.316;2022-08-23T01:47:47;5.3;;;3.9;;
17949;SDS011;9100;48.700;9.316;2022-08-23T01:48:47;5.3;;;3.9;;
17949;SDS011;9100;48.700;9.316;2022-08-23T01:49:47;5.3;;;3.9;;
17949;SDS011;9100;48.700;9.316;2022-08-23T01:50:47;5.3;;;3.9;;
17949;SDS011;9100;48.700;9.316;2022-08-23T01:51:47;5.3;;;3.9;;
17949;SDS011;9100;48.700;9.316;2022-08-23T01:51:57;4.3;;;3.6;;
17949;SDS011;9100;48.700;9.316;2022-08-23T01:52:47;4.3;;;3.6;;
17949;SDS011;9100;48.700;9.316;2022-08-23T01:53:47;4.3;;;3.6;;
17949;SDS011;9100;48.700;9.316;2022-08-23T01:54:47;4.3;;;3.6;;
17949;SDS011;9100;48.700;9.316;2022-08-23T01:55:47;4.3;;;3.6;;
17949;SDS011;9100;48.700;9.316;2022-08-23T01:56:47;4.3;;;3.6;;
17949;SDS011;9100;48.700;9.316;2022-08-23T01:56:57;5.6;;;3.8;;
17949;SDS011;9100;48.700;9.316;2022-08-23T01:57:48;5.6;;;3.8;;
17949;SDS011;9100;48.700;9.316;2022-08-23T01:58:47;5.6;;;3.8;;
17949;SDS011;9100;48.700;9.316;2022-08-23T01:59:47;5.6;;;3.8;;
17949;SDS011;9100;48.700;9.316;2022-08-23T02:00:47;5.6;;;3.8;;
17949;SDS011;9100;48.700;9.316;2022-08-23T02:01:47;5.6;;;3.8;;
17949;SDS011;9100;48.700;9.316;2022-08-23T02:01:57;4.2;;;3.8;;
17949;SDS011;9100;48.700;9.316;2022-08-23T02:02:47;4.2;;;3.8;;
17949;SDS011;9100;48.700;9.316;2022-08-23T02:03:47;4.2;;;3.8;;
17949;SDS011;9100;48.700;9.316;2022-08-23T02:04:47;4.2;;;3.8;;
17949;SDS011;9100;48.700;9.316;2022-08-23T02:05:47;4.2;;;3.8;;
17949;SDS011;9100;48.700;9.316;2022-08-23T02:06:47;4.2;;;3.8;;
17949;SDS011;9100;48.700;9.316;2022-08-23T02:06:57;4.6;;;3.5;;
17949;SDS011;9100;48.700;9.316;2022-08-23T02:07:47;4.6;;;3.5;;
17949;SDS011;9100;48.700;9.316;2022-08-23T02:08:47;4.6;;;3.5;;
17949;SDS011;9100;48.700;9.316;2022-08-23T02:09:47;4.6;;;3.5;;
17949;SDS011;9100;48.700;9.316;2022-08-23T02:10:47;4.6;;;3.5;;
17949;SDS011;9100;48.700;9.316;2022-08-23T02:11:47;4.6;;;3.5;;
17949;SDS011;9100;48.700;9.316;2022-08-23T02:11:57;4.1;;;3.8;;
17949;SDS011;9100;48.700;9.316;2022-08-23T02:12:47;4.1;;;3.8;;
17949;SDS011;9100;48.700;9.316;2022-08-23T02:13:47;4.1;;;3.8;;
17949;SDS011;9100;48.700;9.316;2022-08-23T02:14:47;4.1;;;3.8;;
17949;SDS011;9100;48.700;9.316;2022-08-23T02:15:47;4.1;;;3.8;;
17949;SDS011;9100;48.700;9.316;2022-08-23T02:16:48;4.1;;;3.8;;
17949;SDS011;9100;48.700;9.316;2022-08-23T02:16:57;6.6;;;3.9;;
17949;SDS011;9100;48.700;9.316;2022-08-23T02:17:47;6.6;;;3.9;;
17949;SDS011;9100;48.700;9.316;2022-08-23T02:18:47;6.6;;;3.9;;
17949;SDS011;9100;48.700;9.316;2022-08-23T02:19:47;6.6;;;3.9;;
17949;SDS011;9100;48.700;9.316;2022-08-23T02:20:48;6.6;;;3.9;;
17949;SDS011;9100;48.700;9.316;2022-08-23T02:21:47;6.6;;;3.9;;
17949;SDS011;9100;48.700;9.316;2022-08-23T02:21:57;4.4;;;3.6;;
17949;SDS011;9100;48.700;9.316;2022-08-23T02:22:47;4.4;;;3.6;;
17949;SDS011;9100;48.700;9.316;2022-08-23T02:23:47;4.4;;;3.6;;
17949;SDS011;9100;48.700;9.316;2022-08-23T02:24:47;4.4;;;3.6;;
17949;SDS011;9100;48.700;9.316;2022-08-23T02:25:47;4.4;;;3.6;;
17949;SDS011;9100;48.700;9.316;2022-08-23T02:26:47;4.4;;;3.6;;
17949;SDS011;9100;48.700;9.316;2022-08-23T02:26:58;3.8;;;3.5;;
17949;SDS011;9100;48.700;9.316;2022-08-23T02:27:47;3.8;;;3.5;;
17949;SDS011;9100;48.700;9.316;2022-08-23T02:28:48;3.8;;;3.5;;
17949;SDS011;9100;48.700;9.316;2022-08-23T02:29:47;3.8;;;3.5;;
17949;SDS011;9100;48.700;9.316;2022-08-23T02:30:47;3.8;;;3.5;;
17949;SDS011;9100;48.700;9.316;2022-08-23T02:31:47;3.8;;;3.5;;
17949;SDS011;9100;48.700;9.316;2022-08-23T02:31:57;10.5;;;3.4;;
17949;SDS011;9100;48.700;9.316;2022-08-23T02:32:47;10.5;;;3.4;;
17949;SDS011;9100;48.700;9.316;2022-08-23T02:33:47;10.5;;;3.4;;
17949;SDS011;9100;48.700;9.316;2022-08-23T02:34:47;10.5;;;3.4;;
17949;SDS011;9100;48.700;9.316;2022-08-23T02:35:47;10.5;;;3.4;;
17949;SDS011;9100;48.700;9.316;2022-08-23T02:36:47;10.5;;;3.4;;
17949;SDS011;9100;48.700;9.316;2022-08-23T02:36:57;4.2;;;3.5;;
17949;SDS011;9100;48.700;9.316;2022-08-23T02:37:47;4.2;;;3.5;;
17949;SDS011;9100;48.700;9.316;2022-08-23T02:38:47;4.2;;;3.5;;
17949;SDS011;9100;48.700;9.316;2022-08-23T02:39:47;4.2;;;3.5;;
17949;SDS011;9100;48.700;9.316;2022-08-23T02:40:47;4.2;;;3.5;;
17949;SDS011;9100;48.700;9.316;2022-08-23T02:41:47;4.2;;;3.5;;
17949;SDS011;9100;48.700;9.316;2022-08-23T02:41:57;4.1;;;3.7;;
17949;SDS011;9100;48.700;9.316;2022-08-23T02:42:47;4.1;;;3.7;;
17949;SDS011;9100;48.700;9.316;2022-08-23T02:43:49;4.1;;;3.7;;
17949;SDS011;9100;48.700;9.316;2022-08-23T02:44:47;4.1;;;3.7;;
17949;SDS011;9100;48.700;9.316;2022-08-23T02:45:47;4.1;;;3.7;;
17949;SDS011;9100;48.700;9.316;2022-08-23T02:46:47;4.1;;;3.7;;
17949;SDS011;9100;48.700;9.316;2022-08-23T02:46:57;4.2;;;3.1;;
17949;SDS011;9100;48.700;9.316;2022-08-23T02:47:47;4.2;;;3.1;;
17949;SDS011;9100;48.700;9.316;2022-08-23T02:48:47;4.2;;;3.1;;
17949;SDS011;9100;48.700;9.316;2022-08-23T02:49:47;4.2;;;3.1;;
17949;SDS011;9100;48.700;9.316;2022-08-23T02:50:47;4.2;;;3.1;;
17949;SDS011;9100;48.700;9.316;2022-08-23T02:51:47;4.2;;;3.1;;
17949;SDS011;9100;48.700;9.316;2022-08-23T02:51:57;4.2;;;3.7;;
17949;SDS011;9100;48.700;9.316;2022-08-23T02:52:47;4.2;;;3.7;;
17949;SDS011;9100;48.700;9.316;2022-08-23T02:53:47;4.2;;;3.7;;
17949;SDS011;9100;48.700;9.316;2022-08-23T02:54:47;4.2;;;3.7;;
17949;SDS011;9100;48.700;9.316;2022-08-23T02:55:47;4.2;;;3.7;;
17949;SDS011;9100;48.700;9.316;2022-08-23T02:56:47;4.2;;;3.7;;
17949;SDS011;9100;48.700;9.316;2022-08-23T02:56:57;3.3;;;3.1;;
17949;SDS011;9100;48.700;9.316;2022-08-23T02:57:47;3.3;;;3.1;;
17949;SDS011;9100;48.700;9.316;2022-08-23T02:58:47;3.3;;;3.1;;
17949;SDS011;9100;48.700;9.316;2022-08-23T02:59:47;3.3;;;3.1;;
17949;SDS011;9100;48.700;9.316;2022-08-23T03:00:47;3.3;;;3.1;;
17949;SDS011;9100;48.700;9.316;2022-08-23T03:01:47;3.3;;;3.1;;
17949;SDS011;9100;48.700;9.316;2022-08-23T03:01:57;4;;;3.3;;
17949;SDS011;9100;48.700;9.316;2022-08-23T03:02:47;4;;;3.3;;
17949;SDS011;9100;48.700;9.316;2022-08-23T03:03:47;4;;;3.3;;
17949;SDS011;9100;48.700;9.316;2022-08-23T03:04:47;4;;;3.3;;
17949;SDS011;9100;48.700;9.316;2022-08-23T03:05:47;4;;;3.3;;
17949;SDS011;9100;48.700;9.316;2022-08-23T03:06:47;4;;;3.3;;
17949;SDS011;9100;48.700;9.316;2022-08-23T03:06:57;4.4;;;3.4;;
17949;SDS011;9100;48.700;9.316;2022-08-23T03:07:47;4.4;;;3.4;;
17949;SDS011;9100;48.700;9.316;2022-08-23T03:08:47;4.4;;;3.4;;
17949;SDS011;9100;48.700;9.316;2022-08-23T03:09:47;4.4;;;3.4;;
17949;SDS011;9100;48.700;9.316;2022-08-23T03:10:48;4.4;;;3.4;;
17949;SDS011;9100;48.700;9.316;2022-08-23T03:11:47;4.4;;;3.4;;
17949;SDS011;9100;48.700;9.316;2022-08-23T03:11:57;4.5;;;4.1;;
17949;SDS011;9100;48.700;9.316;2022-08-23T03:12:47;4.5;;;4.1;;
17949;SDS011;9100;48.700;9.316;2022-08-23T03:13:47;4.5;;;4.1;;
17949;SDS011;9100;48.700;9.316;2022-08-23T03:14:47;4.5;;;4.1;;
17949;SDS011;9100;48.700;9.316;2022-08-23T03:15:47;4.5;;;4.1;;
17949;SDS011;9100;48.700;9.316;2022-08-23T03:16:47;4.5;;;4.1;;
17949;SDS011;9100;48.700;9.316;2022-08-23T03:16:57;4;;;3.7;;
17949;SDS011;9100;48.700;9.316;2022-08-23T03:17:47;4;;;3.7;;
17949;SDS011;9100;48.700;9.316;2022-08-23T03:18:47;4;;;3.7;;
17949;SDS011;9100;48.700;9.316;2022-08-23T03:19:47;4;;;3.7;;
17949;SDS011;9100;48.700;9.316;2022-08-23T03:20:47;4;;;3.7;;
17949;SDS011;9100;48.700;9.316;2022-08-23T03:21:47;4;;;3.7;;
17949;SDS011;9100;48.700;9.316;2022-08-23T03:21:57;3.4;;;3.2;;
17949;SDS011;9100;48.700;9.316;2022-08-23T03:22:47;3.4;;;3.2;;
17949;SDS011;9100;48.700;9.316;2022-08-23T03:23:47;3.4;;;3.2;;
17949;SDS011;9100;48.700;9.316;2022-08-23T03:24:47;3.4;;;3.2;;
17949;SDS011;9100;48.700;9.316;2022-08-23T03:25:47;3.4;;;3.2;;
17949;SDS011;9100;48.700;9.316;2022-08-23T03:26:47;3.4;;;3.2;;
17949;SDS011;9100;48.700;9.316;2022-08-23T03:26:57;4.5;;;3.7;;
17949;SDS011;9100;48.700;9.316;2022-08-23T03:27:47;4.5;;;3.7;;
17949;SDS011;9100;48.700;9.316;2022-08-23T03:28:47;4.5;;;3.7;;
17949;SDS011;9100;48.700;9.316;2022-08-23T03:29:47;4.5;;;3.7;;
17949;SDS011;9100;48.700;9.316;2022-08-23T03:30:47;4.5;;;3.7;;
17949;SDS011;9100;48.700;9.316;2022-08-23T03:31:47;4.5;;;3.7;;
17949;SDS011;9100;48.700;9.316;2022-08-23T03:31:57;3.8;;;3.5;;
17949;SDS011;9100;48.700;9.316;2022-08-23T03:32:47;3.8;;;3.5;;
17949;SDS011;9100;48.700;9.316;2022-08-23T03:33:47;3.8;;;3.5;;
17949;SDS011;9100;48.700;9.316;2022-08-23T03:34:47;3.8;;;3.5;;
17949;SDS011;9100;48.700;9.316;2022-08-23T03:35:47;3.8;;;3.5;;
17949;SDS011;9100;48.700;9.316;2022-08-23T03:36:47;3.8;;;3.5;;
17949;SDS011;9100;48.700;9.316;2022-08-23T03:36:57;4.1;;;3.8;;
17949;SDS011;9100;48.700;9.316;2022-08-23T03:37:47;4.1;;;3.8;;
17949;SDS011;9100;48.700;9.316;2022-08-23T03:38:47;4.1;;;3.8;;
17949;SDS011;9100;48.700;9.316;2022-08-23T03:39:47;4.1;;;3.8;;
17949;SDS011;9100;48.700;9.316;2022-08-23T03:40:47;4.1;;;3.8;;
17949;SDS011;9100;48.700;9.316;2022-08-23T03:41:47;4.1;;;3.8;;
17949;SDS011;9100;48.700;9.316;2022-08-23T03:41:57;5.6;;;4.4;;
17949;SDS011;9100;48.700;9.316;2022-08-23T03:42:47;5.6;;;4.4;;
17949;SDS011;9100;48.700;9.316;2022-08-23T03:43:47;5.6;;;4.4;;
17949;SDS011;9100;48.700;9.316;2022-08-23T03:44:47;5.6;;;4.4;;
17949;SDS011;9100;48.700;9.316;2022-08-23T03:45:47;5.6;;;4.4;;
17949;SDS011;9100;48.700;9.316;2022-08-23T03:46:47;5.6;;;4.4;;
17949;SDS011;9100;48.700;9.316;2022-08-23T03:46:57;4.4;;;3.7;;
17949;SDS011;9100;48.700;9.316;2022-08-23T03:47:47;4.4;;;3.7;;
17949;SDS011;9100;48.700;9.316;2022-08-23T03:48:47;4.4;;;3.7;;
17949;SDS011;9100;48.700;9.316;2022-08-23T03:49:47;4.4;;;3.7;;
17949;SDS011;9100;48.700;9.316;2022-08-23T03:50:47;4.4;;;3.7;;
17949;SDS011;9100;48.700;9.316;2022-08-23T03:51:47;4.4;;;3.7;;
17949;SDS011;9100;48.700;9.316;2022-08-23T03:51:57;6.2;;;3.8;;
17949;SDS011;9100;48.700;9.316;2022-08-23T03:52:47;6.2;;;3.8;;
17949;SDS011;9100;48.700;9.316;2022-08-23T03:53:47;6.2;;;3.8;;
17949;SDS011;9100;48.700;9.316;2022-08-23T03:54:47;6.2;;;3.8;;
17949;SDS011;9100;48.700;9.316;2022-08-23T03:55:47;6.2;;;3.8;;
17949;SDS011;9100;48.700;9.316;2022-08-23T03:56:49;6.2;;;3.8;;
17949;SDS011;9100;48.700;9.316;2022-08-23T03:56:58;4.7;;;3.8;;
17949;SDS011;9100;48.700;9.316;2022-08-23T03:57:47;4.7;;;3.8;;
17949;SDS011;9100;48.700;9.316;2022-08-23T03:58:47;4.7;;;3.8;;
17949;SDS011;9100;48.700;9.316;2022-08-23T03:59:47;4.7;;;3.8;;
17949;SDS011;9100;48.700;9.316;2022-08-23T04:00:47;4.7;;;3.8;;
17949;SDS011;9100;48.700;9.316;2022-08-23T04:01:47;4.7;;;3.8;;
17949;SDS011;9100;48.700;9.316;2022-08-23T04:01:57;5;;;4.1;;
17949;SDS011;9100;48.700;9.316;2022-08-23T04:02:47;5;;;4.1;;
17949;SDS011;9100;48.700;9.316;2022-08-23T04:03:47;5;;;4.1;;
17949;SDS011;9100;48.700;9.316;2022-08-23T04:04:47;5;;;4.1;;
17949;SDS011;9100;48.700;9.316;2022-08-23T04:05:47;5;;;4.1;;
17949;SDS011;9100;48.700;9.316;2022-08-23T04:06:47;5;;;4.1;;
17949;SDS011;9100;48.700;9.316;2022-08-23T04:06:57;4.2;;;3.9;;
17949;SDS011;9100;48.700;9.316;2022-08-23T04:07:47;4.2;;;3.9;;
17949;SDS011;9100;48.700;9.316;2022-08-23T04:08:47;4.2;;;3.9;;
17949;SDS011;9100;48.700;9.316;2022-08-23T04:09:47;4.2;;;3.9;;
17949;SDS011;9100;48.700;9.316;2022-08-23T04:10:47;4.2;;;3.9;;
17949;SDS011;9100;48.700;9.316;2022-08-23T04:11:47;4.2;;;3.9;;
17949;SDS011;9100;48.700;9.316;2022-08-23T04:11:57;4.2;;;3.9;;
17949;SDS011;9100;48.700;9.316;2022-08-23T04:12:47;4.2;;;3.9;;
17949;SDS011;9100;48.700;9.316;2022-08-23T04:13:47;4.2;;;3.9;;
17949;SDS011;9100;48.700;9.316;2022-08-23T04:14:47;4.2;;;3.9;;
17949;SDS011;9100;48.700;9.316;2022-08-23T04:15:47;4.2;;;3.9;;
17949;SDS011;9100;48.700;9.316;2022-08-23T04:16:47;4.2;;;3.9;;
17949;SDS011;9100;48.700;9.316;2022-08-23T04:16:57;4.4;;;4.1;;
17949;SDS011;9100;48.700;9.316;2022-08-23T04:17:47;4.4;;;4.1;;
17949;SDS011;9100;48.700;9.316;2022-08-23T04:18:47;4.4;;;4.1;;
17949;SDS011;9100;48.700;9.316;2022-08-23T04:19:47;4.4;;;4.1;;
17949;SDS011;9100;48.700;9.316;2022-08-23T04:20:47;4.4;;;4.1;;
17949;SDS011;9100;48.700;9.316;2022-08-23T04:21:48;4.4;;;4.1;;
17949;SDS011;9100;48.700;9.316;2022-08-23T04:21:57;4.5;;;4.1;;
17949;SDS011;9100;48.700;9.316;2022-08-23T04:22:49;4.5;;;4.1;;
17949;SDS011;9100;48.700;9.316;2022-08-23T04:23:47;4.5;;;4.1;;
17949;SDS011;9100;48.700;9.316;2022-08-23T04:24:47;4.5;;;4.1;;
17949;SDS011;9100;48.700;9.316;2022-08-23T04:25:47;4.5;;;4.1;;
17949;SDS011;9100;48.700;9.316;2022-08-23T04:26:47;4.5;;;4.1;;
17949;SDS011;9100;48.700;9.316;2022-08-23T04:26:57;4;;;3.6;;
17949;SDS011;9100;48.700;9.316;2022-08-23T04:27:47;4;;;3.6;;
17949;SDS011;9100;48.700;9.316;2022-08-23T04:28:47;4;;;3.6;;
17949;SDS011;9100;48.700;9.316;2022-08-23T04:29:47;4;;;3.6;;
17949;SDS011;9100;48.700;9.316;2022-08-23T04:30:47;4;;;3.6;;
17949;SDS011;9100;48.700;9.316;2022-08-23T04:31:47;4;;;3.6;;
17949;SDS011;9100;48.700;9.316;2022-08-23T04:31:57;4.3;;;3.9;;
17949;SDS011;9100;48.700;9.316;2022-08-23T04:32:47;4.3;;;3.9;;
17949;SDS011;9100;48.700;9.316;2022-08-23T04:33:47;4.3;;;3.9;;
17949;SDS011;9100;48.700;9.316;2022-08-23T04:34:47;4.3;;;3.9;;
17949;SDS011;9100;48.700;9.316;2022-08-23T04:35:47;4.3;;;3.9;;
17949;SDS011;9100;48.700;9.316;2022-08-23T04:36:47;4.3;;;3.9;;
17949;SDS011;9100;48.700;9.316;2022-08-23T04:36:57;4;;;3.6;;
17949;SDS011;9100;48.700;9.316;2022-08-23T04:37:47;4;;;3.6;;
17949;SDS011;9100;48.700;9.316;2022-08-23T04:38:47;4;;;3.6;;
17949;SDS011;9100;48.700;9.316;2022-08-23T04:39:47;4;;;3.6;;
17949;SDS011;9100;48.700;9.316;2022-08-23T04:40:47;4;;;3.6;;
17949;SDS011;9100;48.700;9.316;2022-08-23T04:41:47;4;;;3.6;;
17949;SDS011;9100;48.700;9.316;2022-08-23T04:41:57;5.3;;;4.5;;
17949;SDS011;9100;48.700;9.316;2022-08-23T04:42:47;5.3;;;4.5;;
17949;SDS011;9100;48.700;9.316;2022-08-23T04:43:47;5.3;;;4.5;;
17949;SDS011;9100;48.700;9.316;2022-08-23T04:44:47;5.3;;;4.5;;
17949;SDS011;9100;48.700;9.316;2022-08-23T04:45:47;5.3;;;4.5;;
17949;SDS011;9100;48.700;9.316;2022-08-23T04:46:47;5.3;;;4.5;;
17949;SDS011;9100;48.700;9.316;2022-08-23T04:46:57;4.8;;;4.4;;
17949;SDS011;9100;48.700;9.316;2022-08-23T04:47:47;4.8;;;4.4;;
17949;SDS011;9100;48.700;9.316;2022-08-23T04:48:47;4.8;;;4.4;;
17949;SDS011;9100;48.700;9.316;2022-08-23T04:49:47;4.8;;;4.4;;
17949;SDS011;9100;48.700;9.316;2022-08-23T04:50:47;4.8;;;4.4;;
17949;SDS011;9100;48.700;9.316;2022-08-23T04:51:47;4.8;;;4.4;;
17949;SDS011;9100;48.700;9.316;2022-08-23T04:51:57;4.6;;;4;;
17949;SDS011;9100;48.700;9.316;2022-08-23T04:52:47;4.6;;;4;;
17949;SDS011;9100;48.700;9.316;2022-08-23T04:53:47;4.6;;;4;;
17949;SDS011;9100;48.700;9.316;2022-08-23T04:54:47;4.6;;;4;;
17949;SDS011;9100;48.700;9.316;2022-08-23T04:55:47;4.6;;;4;;
17949;SDS011;9100;48.700;9.316;2022-08-23T04:56:47;4.6;;;4;;
17949;SDS011;9100;48.700;9.316;2022-08-23T04:56:57;9.4;;;5.1;;
17949;SDS011;9100;48.700;9.316;2022-08-23T04:57:47;9.4;;;5.1;;
17949;SDS011;9100;48.700;9.316;2022-08-23T04:58:47;9.4;;;5.1;;
17949;SDS011;9100;48.700;9.316;2022-08-23T04:59:47;9.4;;;5.1;;
17949;SDS011;9100;48.700;9.316;2022-08-23T05:00:47;9.4;;;5.1;;
17949;SDS011;9100;48.700;9.316;2022-08-23T05:01:47;9.4;;;5.1;;
17949;SDS011;9100;48.700;9.316;2022-08-23T05:01:57;5.1;;;4.4;;
17949;SDS011;9100;48.700;9.316;2022-08-23T05:02:47;5.1;;;4.4;;
17949;SDS011;9100;48.700;9.316;2022-08-23T05:03:47;5.1;;;4.4;;
17949;SDS011;9100;48.700;9.316;2022-08-23T05:04:47;5.1;;;4.4;;
17949;SDS011;9100;48.700;9.316;2022-08-23T05:05:47;5.1;;;4.4;;
17949;SDS011;9100;48.700;9.316;2022-08-23T05:06:47;5.1;;;4.4;;
17949;SDS011;9100;48.700;9.316;2022-08-23T05:06:57;4.4;;;4.1;;
17949;SDS011;9100;48.700;9.316;2022-08-23T05:07:47;4.4;;;4.1;;
17949;SDS011;9100;48.700;9.316;2022-08-23T05:08:47;4.4;;;4.1;;
17949;SDS011;9100;48.700;9.316;2022-08-23T05:09:47;4.4;;;4.1;;
17949;SDS011;9100;48.700;9.316;2022-08-23T05:10:47;4.4;;;4.1;;
17949;SDS011;9100;48.700;9.316;2022-08-23T05:11:47;4.4;;;4.1;;
17949;SDS011;9100;48.700;9.316;2022-08-23T05:11:57;4.9;;;4.4;;
17949;SDS011;9100;48.700;9.316;2022-08-23T05:12:47;4.9;;;4.4;;
17949;SDS011;9100;48.700;9.316;2022-08-23T05:13:47;4.9;;;4.4;;
17949;SDS011;9100;48.700;9.316;2022-08-23T05:14:47;4.9;;;4.4;;
17949;SDS011;9100;48.700;9.316;2022-08-23T05:15:49;4.9;;;4.4;;
17949;SDS011;9100;48.700;9.316;2022-08-23T05:16:47;4.9;;;4.4;;
17949;SDS011;9100;48.700;9.316;2022-08-23T05:16:57;4.9;;;4.5;;